sensor_id;sensor_type;location;lat;lon;timestamp;temperature;humidity
12223;DHT22;6174;49.058;8.524;2023-05-10T05:01:41;13.70;99.90
12223;DHT22;6174;49.058;8.524;2023-05-10T05:04:08;13.70;99.90
12223;DHT22;6174;49.058;8.524;2023-05-10T05:06:35;13.70;99.90
12223;DHT22;6174;49.058;8.524;2023-05-10T05:09:02;13.70;99.90
12223;DHT22;6174;49.058;8.524;2023-05-10T05:11:29;13.70;99.90
12223;DHT22;6174;49.058;8.524;2023-05-10T05:13:56;13.70;99.90
12223;DHT22;6174;49.058;8.524;2023-05-10T05:16:24;13.60;99.90
12223;DHT22;6174;49.058;8.524;2023-05-10T05:18:52;13.80;99.90
12223;DHT22;6174;49.058;8.524;2023-05-10T05:21:19;13.80;99.90
12223;DHT22;6174;49.058;8.524;2023-05-10T05:23:46;13.80;99.90
12223;DHT22;6174;49.058;8.524;2023-05-10T05:26:13;13.90;99.90
12223;DHT22;6174;49.058;8.524;2023-05-10T05:28:40;13.90;99.90
12223;DHT22;6174;49.058;8.524;2023-05-10T05:31:07;13.80;99.90
12223;DHT22;6174;49.058;8.524;2023-05-10T05:33:34;13.80;99.90
12223;DHT22;6174;49.058;8.524;2023-05-10T05:36:03;13.90;99.90
12223;DHT22;6174;49.058;8.524;2023-05-10T05:38:30;13.90;99.90
12223;DHT22;6174;49.058;8.524;2023-05-10T05:40:57;13.90;99.90
12223;DHT22;6174;49.058;8.524;2023-05-10T05:43:24;14.00;99.90
12223;DHT22;6174;49.058;8.524;2023-05-10T05:45:52;13.90;99.90
12223;DHT22;6174;49.058;8.524;2023-05-10T05:48:18;14.00;99.90
12223;DHT22;6174;49.058;8.524;2023-05-10T05:50:45;14.00;99.90
12223;DHT22;6174;49.058;8.524;2023-05-10T05:53:13;14.00;99.90
12223;DHT22;6174;49.058;8.524;2023-05-10T05:55:40;14.00;99.90
12223;DHT22;6174;49.058;8.524;2023-05-10T05:58:07;14.10;99.90
12223;DHT22;6174;49.058;8.524;2023-05-10T06:00:34;14.00;99.90
12223;DHT22;6174;49.058;8.524;2023-05-10T06:03:00;14.00;99.90
12223;DHT22;6174;49.058;8.524;2023-05-10T06:05:27;14.00;99.90
12223;DHT22;6174;49.058;8.524;2023-05-10T06:07:54;14.10;99.90
12223;DHT22;6174;49.058;8.524;2023-05-10T06:10:22;14.10;99.90
12223;DHT22;6174;49.058;8.524;2023-05-10T06:12:50;14.10;99.90
12223;DHT22;6174;49.058;8.524;2023-05-10T06:15:17;14.10;99.90
12223;DHT22;6174;49.058;8.524;2023-05-10T06:17:44;14.20;99.90
12223;DHT22;6174;49.058;8.524;2023-05-10T06:20:13;14.20;99.90
12223;DHT22;6174;49.058;8.524;2023-05-10T06:22:40;14.20;99.90
12223;DHT22;6174;49.058;8.524;2023-05-10T06:25:07;14.20;99.90
12223;DHT22;6174;49.058;8.524;2023-05-10T06:27:35;14.20;99.90
12223;DHT22;6174;49.058;8.524;2023-05-10T06:30:03;14.10;99.90
12223;DHT22;6174;49.058;8.524;2023-05-10T06:32:30;14.20;99.90
12223;DHT22;6174;49.058;8.524;2023-05-10T06:34:57;14.30;99.90
12223;DHT22;6174;49.058;8.524;2023-05-10T06:37:24;14.20;99.90
12223;DHT22;6174;49.058;8.524;2023-05-10T06:39:51;14.30;99.90
12223;DHT22;6174;49.058;8.524;2023-05-10T06:42:17;14.30;99.90
12223;DHT22;6174;49.058;8.524;2023-05-10T06:44:46;14.30;99.90
12223;DHT22;6174;49.058;8.524;2023-05-10T06:47:12;14.40;99.90
12223;DHT22;6174;49.058;8.524;2023-05-10T06:49:39;14.40;99.90
12223;DHT22;6174;49.058;8.524;2023-05-10T06:52:06;14.40;99.90
12223;DHT22;6174;49.058;8.524;2023-05-10T06:54:33;14.50;99.90
12223;DHT22;6174;49.058;8.524;2023-05-10T06:56:59;14.50;99.90
12223;DHT22;6174;49.058;8.524;2023-05-10T06:59:28;14.60;99.90
12223;DHT22;6174;49.058;8.524;2023-05-10T07:01:56;14.50;99.90
12223;DHT22;6174;49.058;8.524;2023-05-10T07:04:23;14.50;99.90
12223;DHT22;6174;49.058;8.524;2023-05-10T07:06:50;14.50;99.90
12223;DHT22;6174;49.058;8.524;2023-05-10T07:09:16;14.50;99.90
12223;DHT22;6174;49.058;8.524;2023-05-10T07:11:43;14.50;99.90
12223;DHT22;6174;49.058;8.524;2023-05-10T07:14:10;14.60;99.90
12223;DHT22;6174;49.058;8.524;2023-05-10T07:16:37;14.60;99.90
12223;DHT22;6174;49.058;8.524;2023-05-10T07:19:05;14.70;99.90
12223;DHT22;6174;49.058;8.524;2023-05-10T07:21:32;14.70;99.90
12223;DHT22;6174;49.058;8.524;2023-05-10T07:24:00;14.60;99.90
12223;DHT22;6174;49.058;8.524;2023-05-10T07:26:27;14.60;99.90
12223;DHT22;6174;49.058;8.524;2023-05-10T07:28:54;14.50;99.90
12223;DHT22;6174;49.058;8.524;2023-05-10T07:31:21;14.50;99.90
12223;DHT22;6174;49.058;8.524;2023-05-10T07:33:47;14.50;99.90
12223;DHT22;6174;49.058;8.524;2023-05-10T07:36:15;14.40;99.90
12223;DHT22;6174;49.058;8.524;2023-05-10T07:38:42;14.50;99.90
12223;DHT22;6174;49.058;8.524;2023-05-10T07:41:11;14.50;99.90
12223;DHT22;6174;49.058;8.524;2023-05-10T07:43:38;14.50;99.90
12223;DHT22;6174;49.058;8.524;2023-05-10T07:46:05;14.60;99.90
12223;DHT22;6174;49.058;8.524;2023-05-10T07:48:32;14.70;99.90
12223;DHT22;6174;49.058;8.524;2023-05-10T07:50:58;14.70;99.90
12223;DHT22;6174;49.058;8.524;2023-05-10T07:53:26;14.70;99.90
12223;DHT22;6174;49.058;8.524;2023-05-10T07:55:57;14.70;99.90
12223;DHT22;6174;49.058;8.524;2023-05-10T07:58:24;14.70;99.90
12223;DHT22;6174;49.058;8.524;2023-05-10T08:00:51;14.70;99.90
12223;DHT22;6174;49.058;8.524;2023-05-10T08:03:18;14.60;99.90
12223;DHT22;6174;49.058;8.524;2023-05-10T08:05:45;14.60;99.90
12223;DHT22;6174;49.058;8.524;2023-05-10T08:08:12;14.70;99.90
12223;DHT22;6174;49.058;8.524;2023-05-10T08:10:40;14.70;99.90
12223;DHT22;6174;49.058;8.524;2023-05-10T08:13:06;14.70;99.90
12223;DHT22;6174;49.058;8.524;2023-05-10T08:15:33;14.70;99.90
12223;DHT22;6174;49.058;8.524;2023-05-10T08:18:00;14.60;99.90
12223;DHT22;6174;49.058;8.524;2023-05-10T08:20:27;14.70;99.90
12223;DHT22;6174;49.058;8.524;2023-05-10T08:22:53;14.80;99.90
12223;DHT22;6174;49.058;8.524;2023-05-10T08:25:20;14.80;99.90
12223;DHT22;6174;49.058;8.524;2023-05-10T08:27:48;15.00;99.90
12223;DHT22;6174;49.058;8.524;2023-05-10T08:30:15;15.20;99.90
12223;DHT22;6174;49.058;8.524;2023-05-10T08:32:42;15.40;99.90
12223;DHT22;6174;49.058;8.524;2023-05-10T08:35:08;15.50;99.90
12223;DHT22;6174;49.058;8.524;2023-05-10T08:37:35;15.50;99.90
12223;DHT22;6174;49.058;8.524;2023-05-10T08:40:02;15.50;99.90
12223;DHT22;6174;49.058;8.524;2023-05-10T08:42:30;15.50;99.90
12223;DHT22;6174;49.058;8.524;2023-05-10T08:45:02;15.50;99.90
12223;DHT22;6174;49.058;8.524;2023-05-10T08:47:29;15.40;99.90
12223;DHT22;6174;49.058;8.524;2023-05-10T08:49:58;15.30;99.90
12223;DHT22;6174;49.058;8.524;2023-05-10T08:52:26;15.20;99.90
12223;DHT22;6174;49.058;8.524;2023-05-10T08:54:54;15.00;99.90
12223;DHT22;6174;49.058;8.524;2023-05-10T08:57:21;14.90;99.90
12223;DHT22;6174;49.058;8.524;2023-05-10T08:59:48;14.80;99.90
12223;DHT22;6174;49.058;8.524;2023-05-10T09:02:17;14.80;99.90
12223;DHT22;6174;49.058;8.524;2023-05-10T09:04:44;14.80;99.90
12223;DHT22;6174;49.058;8.524;2023-05-10T09:07:11;14.70;99.90
12223;DHT22;6174;49.058;8.524;2023-05-10T09:09:38;14.70;99.90
12223;DHT22;6174;49.058;8.524;2023-05-10T09:12:05;14.80;99.90
12223;DHT22;6174;49.058;8.524;2023-05-10T09:14:34;14.80;99.90
12223;DHT22;6174;49.058;8.524;2023-05-10T09:17:01;14.90;99.90
12223;DHT22;6174;49.058;8.524;2023-05-10T09:19:30;14.80;99.90
12223;DHT22;6174;49.058;8.524;2023-05-10T09:21:56;14.90;99.90
12223;DHT22;6174;49.058;8.524;2023-05-10T09:24:26;14.80;99.90
12223;DHT22;6174;49.058;8.524;2023-05-10T09:26:53;14.80;99.90
12223;DHT22;6174;49.058;8.524;2023-05-10T09:29:20;14.80;99.90
12223;DHT22;6174;49.058;8.524;2023-05-10T09:31:47;14.90;99.90
12223;DHT22;6174;49.058;8.524;2023-05-10T09:34:17;14.90;99.90
12223;DHT22;6174;49.058;8.524;2023-05-10T09:36:56;15.10;99.90
12223;DHT22;6174;49.058;8.524;2023-05-10T09:39:31;15.20;99.90
12223;DHT22;6174;49.058;8.524;2023-05-10T09:41:58;15.20;99.90
12223;DHT22;6174;49.058;8.524;2023-05-10T09:44:26;15.20;99.90
12223;DHT22;6174;49.058;8.524;2023-05-10T09:46:53;15.20;99.90
12223;DHT22;6174;49.058;8.524;2023-05-10T09:49:20;15.20;99.90
12223;DHT22;6174;49.058;8.524;2023-05-10T09:51:47;15.10;99.90
12223;DHT22;6174;49.058;8.524;2023-05-10T09:54:25;15.10;99.90
12223;DHT22;6174;49.058;8.524;2023-05-10T09:56:51;15.00;99.90
12223;DHT22;6174;49.058;8.524;2023-05-10T09:59:18;15.00;99.90
12223;DHT22;6174;49.058;8.524;2023-05-10T10:01:49;15.10;99.90
12223;DHT22;6174;49.058;8.524;2023-05-10T10:04:16;15.10;99.90
12223;DHT22;6174;49.058;8.524;2023-05-10T10:06:46;15.10;99.90
12223;DHT22;6174;49.058;8.524;2023-05-10T10:09:14;15.20;99.90
12223;DHT22;6174;49.058;8.524;2023-05-10T10:11:42;15.30;99.90
12223;DHT22;6174;49.058;8.524;2023-05-10T10:14:09;15.40;99.90
12223;DHT22;6174;49.058;8.524;2023-05-10T10:16:37;15.40;99.90
12223;DHT22;6174;49.058;8.524;2023-05-10T10:19:04;15.30;99.90
12223;DHT22;6174;49.058;8.524;2023-05-10T10:21:32;15.40;99.90
12223;DHT22;6174;49.058;8.524;2023-05-10T10:23:59;15.40;99.90
12223;DHT22;6174;49.058;8.524;2023-05-10T10:26:26;15.50;99.90
12223;DHT22;6174;49.058;8.524;2023-05-10T10:29:03;15.50;99.90
12223;DHT22;6174;49.058;8.524;2023-05-10T10:31:37;15.60;99.90
12223;DHT22;6174;49.058;8.524;2023-05-10T10:34:06;15.70;99.90
12223;DHT22;6174;49.058;8.524;2023-05-10T10:36:40;15.60;99.90
12223;DHT22;6174;49.058;8.524;2023-05-10T10:39:10;15.70;99.90
12223;DHT22;6174;49.058;8.524;2023-05-10T10:41:38;15.70;99.90
12223;DHT22;6174;49.058;8.524;2023-05-10T10:44:36;15.70;99.90
12223;DHT22;6174;49.058;8.524;2023-05-10T10:47:20;15.70;99.90
12223;DHT22;6174;49.058;8.524;2023-05-10T10:49:51;15.80;99.90
12223;DHT22;6174;49.058;8.524;2023-05-10T10:52:23;16.00;99.90
12223;DHT22;6174;49.058;8.524;2023-05-10T10:54:53;16.10;99.90
12223;DHT22;6174;49.058;8.524;2023-05-10T10:57:21;16.20;99.90
12223;DHT22;6174;49.058;8.524;2023-05-10T10:59:49;16.30;99.90
12223;DHT22;6174;49.058;8.524;2023-05-10T11:02:43;16.40;99.90
12223;DHT22;6174;49.058;8.524;2023-05-10T11:08:14;16.50;99.90
12223;DHT22;6174;49.058;8.524;2023-05-10T11:10:50;16.40;99.90
12223;DHT22;6174;49.058;8.524;2023-05-10T11:13:27;16.50;99.90
12223;DHT22;6174;49.058;8.524;2023-05-10T11:15:56;16.70;99.90
12223;DHT22;6174;49.058;8.524;2023-05-10T11:18:25;16.80;99.90
12223;DHT22;6174;49.058;8.524;2023-05-10T11:20:56;16.90;99.90
12223;DHT22;6174;49.058;8.524;2023-05-10T11:23:23;16.90;99.90
12223;DHT22;6174;49.058;8.524;2023-05-10T11:25:49;16.90;99.90
12223;DHT22;6174;49.058;8.524;2023-05-10T11:28:17;17.00;99.90
12223;DHT22;6174;49.058;8.524;2023-05-10T11:30:45;16.80;99.90
12223;DHT22;6174;49.058;8.524;2023-05-10T11:33:17;17.00;99.90
12223;DHT22;6174;49.058;8.524;2023-05-10T11:35:45;17.00;99.90
12223;DHT22;6174;49.058;8.524;2023-05-10T11:38:13;16.90;99.90
12223;DHT22;6174;49.058;8.524;2023-05-10T11:40:41;17.00;99.90
12223;DHT22;6174;49.058;8.524;2023-05-10T11:43:09;17.00;99.90
12223;DHT22;6174;49.058;8.524;2023-05-10T11:45:36;17.10;99.90
12223;DHT22;6174;49.058;8.524;2023-05-10T11:48:03;16.90;99.90
12223;DHT22;6174;49.058;8.524;2023-05-10T11:50:32;16.90;99.90
12223;DHT22;6174;49.058;8.524;2023-05-10T11:52:59;16.90;99.90
12223;DHT22;6174;49.058;8.524;2023-05-10T11:55:25;16.90;99.90
12223;DHT22;6174;49.058;8.524;2023-05-10T11:57:53;16.80;99.90
12223;DHT22;6174;49.058;8.524;2023-05-10T12:00:20;16.70;99.90
12223;DHT22;6174;49.058;8.524;2023-05-10T12:02:47;16.60;99.90
12223;DHT22;6174;49.058;8.524;2023-05-10T12:05:14;16.60;99.90
12223;DHT22;6174;49.058;8.524;2023-05-10T12:07:43;16.70;99.90
12223;DHT22;6174;49.058;8.524;2023-05-10T12:10:11;16.60;99.90
12223;DHT22;6174;49.058;8.524;2023-05-10T12:12:40;16.60;99.90
12223;DHT22;6174;49.058;8.524;2023-05-10T12:15:12;16.60;99.90
12223;DHT22;6174;49.058;8.524;2023-05-10T12:17:39;16.50;99.90
12223;DHT22;6174;49.058;8.524;2023-05-10T12:20:16;16.50;99.90
12223;DHT22;6174;49.058;8.524;2023-05-10T12:22:50;16.40;99.90
12223;DHT22;6174;49.058;8.524;2023-05-10T12:25:17;16.50;99.80
12223;DHT22;6174;49.058;8.524;2023-05-10T12:27:51;16.50;99.90
12223;DHT22;6174;49.058;8.524;2023-05-10T12:30:22;16.50;99.90
12223;DHT22;6174;49.058;8.524;2023-05-10T12:32:49;16.60;99.90
12223;DHT22;6174;49.058;8.524;2023-05-10T12:35:16;16.60;99.90
12223;DHT22;6174;49.058;8.524;2023-05-10T12:37:47;16.60;99.50
12223;DHT22;6174;49.058;8.524;2023-05-10T12:40:14;16.60;99.00
12223;DHT22;6174;49.058;8.524;2023-05-10T12:42:41;16.60;98.40
12223;DHT22;6174;49.058;8.524;2023-05-10T12:45:11;16.70;98.50
12223;DHT22;6174;49.058;8.524;2023-05-10T12:47:39;16.70;98.40
12223;DHT22;6174;49.058;8.524;2023-05-10T12:50:06;16.80;98.40
12223;DHT22;6174;49.058;8.524;2023-05-10T12:52:33;16.90;98.50
12223;DHT22;6174;49.058;8.524;2023-05-10T12:55:01;16.90;96.60
12223;DHT22;6174;49.058;8.524;2023-05-10T12:57:28;16.80;96.00
12223;DHT22;6174;49.058;8.524;2023-05-10T12:59:56;17.00;96.10
12223;DHT22;6174;49.058;8.524;2023-05-10T13:02:22;17.10;96.20
12223;DHT22;6174;49.058;8.524;2023-05-10T13:04:50;17.00;94.00
12223;DHT22;6174;49.058;8.524;2023-05-10T13:07:16;17.00;95.90
12223;DHT22;6174;49.058;8.524;2023-05-10T13:09:43;17.20;95.20
12223;DHT22;6174;49.058;8.524;2023-05-10T13:12:11;17.20;96.20
12223;DHT22;6174;49.058;8.524;2023-05-10T13:14:38;17.30;95.10
12223;DHT22;6174;49.058;8.524;2023-05-10T13:17:05;17.20;94.60
12223;DHT22;6174;49.058;8.524;2023-05-10T13:19:32;17.00;94.80
12223;DHT22;6174;49.058;8.524;2023-05-10T13:21:59;17.10;96.50
12223;DHT22;6174;49.058;8.524;2023-05-10T13:24:26;17.20;93.90
12223;DHT22;6174;49.058;8.524;2023-05-10T13:26:52;17.30;93.80
12223;DHT22;6174;49.058;8.524;2023-05-10T13:29:20;17.30;93.40
12223;DHT22;6174;49.058;8.524;2023-05-10T13:31:48;17.40;93.40
12223;DHT22;6174;49.058;8.524;2023-05-10T13:34:14;17.40;92.60
12223;DHT22;6174;49.058;8.524;2023-05-10T13:36:41;17.40;92.80
12223;DHT22;6174;49.058;8.524;2023-05-10T13:39:08;17.40;93.00
12223;DHT22;6174;49.058;8.524;2023-05-10T13:41:34;17.30;92.70
12223;DHT22;6174;49.058;8.524;2023-05-10T13:44:02;17.40;91.60
12223;DHT22;6174;49.058;8.524;2023-05-10T13:46:30;17.40;93.20
12223;DHT22;6174;49.058;8.524;2023-05-10T13:48:57;17.50;93.50
12223;DHT22;6174;49.058;8.524;2023-05-10T13:51:23;17.50;91.60
12223;DHT22;6174;49.058;8.524;2023-05-10T13:53:50;17.50;91.80
12223;DHT22;6174;49.058;8.524;2023-05-10T13:56:17;17.60;92.10
12223;DHT22;6174;49.058;8.524;2023-05-10T13:58:44;17.60;92.00
12223;DHT22;6174;49.058;8.524;2023-05-10T14:01:10;17.70;91.70
12223;DHT22;6174;49.058;8.524;2023-05-10T14:03:39;17.70;90.80
12223;DHT22;6174;49.058;8.524;2023-05-10T14:06:06;17.70;91.10
12223;DHT22;6174;49.058;8.524;2023-05-10T14:08:36;17.60;90.40
12223;DHT22;6174;49.058;8.524;2023-05-10T14:11:03;17.60;91.70
12223;DHT22;6174;49.058;8.524;2023-05-10T14:13:29;17.60;92.80
12223;DHT22;6174;49.058;8.524;2023-05-10T14:15:56;17.60;92.20
12223;DHT22;6174;49.058;8.524;2023-05-10T14:18:25;17.70;91.40
12223;DHT22;6174;49.058;8.524;2023-05-10T14:20:53;17.60;91.00
12223;DHT22;6174;49.058;8.524;2023-05-10T14:23:21;17.60;91.60
12223;DHT22;6174;49.058;8.524;2023-05-10T14:25:49;17.60;92.20
12223;DHT22;6174;49.058;8.524;2023-05-10T14:28:16;17.60;92.20
12223;DHT22;6174;49.058;8.524;2023-05-10T14:30:43;17.60;92.00
12223;DHT22;6174;49.058;8.524;2023-05-10T14:33:12;17.70;91.90
12223;DHT22;6174;49.058;8.524;2023-05-10T14:35:39;17.60;91.60
12223;DHT22;6174;49.058;8.524;2023-05-10T14:38:07;17.60;91.50
12223;DHT22;6174;49.058;8.524;2023-05-10T14:40:36;17.60;92.50
12223;DHT22;6174;49.058;8.524;2023-05-10T14:43:06;17.90;91.80
12223;DHT22;6174;49.058;8.524;2023-05-10T14:45:38;17.50;91.00
12223;DHT22;6174;49.058;8.524;2023-05-10T14:48:07;17.50;92.00
12223;DHT22;6174;49.058;8.524;2023-05-10T14:50:37;17.90;92.10
12223;DHT22;6174;49.058;8.524;2023-05-10T14:53:05;18.00;91.30
12223;DHT22;6174;49.058;8.524;2023-05-10T14:55:33;17.50;92.20
12223;DHT22;6174;49.058;8.524;2023-05-10T14:58:09;17.50;91.90
12223;DHT22;6174;49.058;8.524;2023-05-10T15:00:36;17.50;92.40
12223;DHT22;6174;49.058;8.524;2023-05-10T15:03:13;17.50;91.70
12223;DHT22;6174;49.058;8.524;2023-05-10T15:05:42;17.60;92.00
12223;DHT22;6174;49.058;8.524;2023-05-10T15:08:09;17.90;92.10
12223;DHT22;6174;49.058;8.524;2023-05-10T15:10:41;17.60;92.20
12223;DHT22;6174;49.058;8.524;2023-05-10T15:13:11;17.60;91.60
12223;DHT22;6174;49.058;8.524;2023-05-10T15:15:39;18.30;92.00
12223;DHT22;6174;49.058;8.524;2023-05-10T15:18:12;17.60;92.40
12223;DHT22;6174;49.058;8.524;2023-05-10T15:20:40;18.20;91.80
12223;DHT22;6174;49.058;8.524;2023-05-10T15:23:10;17.60;92.30
12223;DHT22;6174;49.058;8.524;2023-05-10T15:25:54;17.50;93.10
12223;DHT22;6174;49.058;8.524;2023-05-10T15:28:33;17.50;91.90
12223;DHT22;6174;49.058;8.524;2023-05-10T15:31:02;17.60;92.20
12223;DHT22;6174;49.058;8.524;2023-05-10T15:33:33;17.50;92.30
12223;DHT22;6174;49.058;8.524;2023-05-10T15:36:09;17.50;93.30
12223;DHT22;6174;49.058;8.524;2023-05-10T15:38:36;17.50;93.30
12223;DHT22;6174;49.058;8.524;2023-05-10T15:41:04;17.40;93.40
12223;DHT22;6174;49.058;8.524;2023-05-10T15:43:31;18.10;93.80
12223;DHT22;6174;49.058;8.524;2023-05-10T15:45:58;17.50;93.70
12223;DHT22;6174;49.058;8.524;2023-05-10T15:48:25;17.70;93.60
12223;DHT22;6174;49.058;8.524;2023-05-10T15:50:51;17.50;92.80
12223;DHT22;6174;49.058;8.524;2023-05-10T15:53:18;17.70;93.60
12223;DHT22;6174;49.058;8.524;2023-05-10T15:55:45;18.10;93.40
12223;DHT22;6174;49.058;8.524;2023-05-10T15:58:29;17.60;93.10
12223;DHT22;6174;49.058;8.524;2023-05-10T16:01:34;17.50;92.90
12223;DHT22;6174;49.058;8.524;2023-05-10T16:04:12;17.50;92.60
12223;DHT22;6174;49.058;8.524;2023-05-10T16:07:28;17.50;93.60
12223;DHT22;6174;49.058;8.524;2023-05-10T16:10:09;17.50;93.10
12223;DHT22;6174;49.058;8.524;2023-05-10T16:12:39;17.50;92.90
12223;DHT22;6174;49.058;8.524;2023-05-10T16:15:11;17.40;93.50
12223;DHT22;6174;49.058;8.524;2023-05-10T16:17:44;18.10;92.60
12223;DHT22;6174;49.058;8.524;2023-05-10T16:20:11;17.40;93.40
12223;DHT22;6174;49.058;8.524;2023-05-10T16:22:38;17.70;93.30
12223;DHT22;6174;49.058;8.524;2023-05-10T16:25:08;18.00;92.90
12223;DHT22;6174;49.058;8.524;2023-05-10T16:27:36;17.30;92.40
12223;DHT22;6174;49.058;8.524;2023-05-10T16:33:21;17.30;93.10
12223;DHT22;6174;49.058;8.524;2023-05-10T16:35:54;17.20;94.50
12223;DHT22;6174;49.058;8.524;2023-05-10T16:38:25;17.20;94.10
12223;DHT22;6174;49.058;8.524;2023-05-10T16:41:08;17.30;95.10
12223;DHT22;6174;49.058;8.524;2023-05-10T16:43:39;17.30;95.50
12223;DHT22;6174;49.058;8.524;2023-05-10T16:46:30;17.20;95.70
12223;DHT22;6174;49.058;8.524;2023-05-10T16:49:01;17.00;96.30
12223;DHT22;6174;49.058;8.524;2023-05-10T16:51:46;16.90;96.20
12223;DHT22;6174;49.058;8.524;2023-05-10T16:54:28;17.00;96.70
12223;DHT22;6174;49.058;8.524;2023-05-10T16:57:18;16.90;97.70
12223;DHT22;6174;49.058;8.524;2023-05-10T17:00:12;16.80;97.80
12223;DHT22;6174;49.058;8.524;2023-05-10T17:02:48;16.70;97.60
12223;DHT22;6174;49.058;8.524;2023-05-10T17:05:16;16.60;97.70
12223;DHT22;6174;49.058;8.524;2023-05-10T17:07:45;17.20;98.50
12223;DHT22;6174;49.058;8.524;2023-05-10T17:10:12;16.40;98.70
12223;DHT22;6174;49.058;8.524;2023-05-10T17:12:45;17.10;98.10
12223;DHT22;6174;49.058;8.524;2023-05-10T18:30:36;15.90;99.10
12223;DHT22;6174;49.058;8.524;2023-05-10T18:33:04;15.90;99.00
12223;DHT22;6174;49.058;8.524;2023-05-10T18:35:31;15.80;99.10
12223;DHT22;6174;49.058;8.524;2023-05-10T18:37:59;15.80;99.50
12223;DHT22;6174;49.058;8.524;2023-05-10T18:40:26;15.70;99.30
12223;DHT22;6174;49.058;8.524;2023-05-10T18:42:53;15.70;99.90
12223;DHT22;6174;49.058;8.524;2023-05-10T18:45:20;15.60;99.90
12223;DHT22;6174;49.058;8.524;2023-05-10T18:47:48;15.60;99.90
12223;DHT22;6174;49.058;8.524;2023-05-10T18:50:15;15.50;99.90
12223;DHT22;6174;49.058;8.524;2023-05-10T18:52:42;15.40;99.90
12223;DHT22;6174;49.058;8.524;2023-05-10T18:55:10;15.40;99.90
12223;DHT22;6174;49.058;8.524;2023-05-10T18:57:36;15.40;99.90
12223;DHT22;6174;49.058;8.524;2023-05-10T19:00:07;15.30;99.90
12223;DHT22;6174;49.058;8.524;2023-05-10T19:02:34;15.30;99.90
12223;DHT22;6174;49.058;8.524;2023-05-10T19:05:03;15.30;99.90
12223;DHT22;6174;49.058;8.524;2023-05-10T19:07:30;15.30;99.90
12223;DHT22;6174;49.058;8.524;2023-05-10T19:09:56;15.30;99.90
12223;DHT22;6174;49.058;8.524;2023-05-10T19:12:23;15.20;99.90
12223;DHT22;6174;49.058;8.524;2023-05-10T19:14:50;15.20;99.90
12223;DHT22;6174;49.058;8.524;2023-05-10T19:17:17;15.20;99.90
12223;DHT22;6174;49.058;8.524;2023-05-10T19:19:44;15.10;99.90
12223;DHT22;6174;49.058;8.524;2023-05-10T19:22:12;15.10;99.90
12223;DHT22;6174;49.058;8.524;2023-05-10T19:24:38;15.10;99.90
12223;DHT22;6174;49.058;8.524;2023-05-10T19:27:05;15.00;99.90
12223;DHT22;6174;49.058;8.524;2023-05-10T19:29:33;15.00;99.90
12223;DHT22;6174;49.058;8.524;2023-05-10T19:31:59;15.00;99.90
12223;DHT22;6174;49.058;8.524;2023-05-10T19:34:26;14.90;99.90
12223;DHT22;6174;49.058;8.524;2023-05-10T19:36:53;14.90;99.90
12223;DHT22;6174;49.058;8.524;2023-05-10T19:39:21;14.90;99.90
12223;DHT22;6174;49.058;8.524;2023-05-10T19:41:48;14.80;99.90
12223;DHT22;6174;49.058;8.524;2023-05-10T19:44:15;14.80;99.90
12223;DHT22;6174;49.058;8.524;2023-05-10T19:46:42;14.80;99.90
12223;DHT22;6174;49.058;8.524;2023-05-10T19:49:09;14.70;99.90
12223;DHT22;6174;49.058;8.524;2023-05-10T19:51:36;14.70;99.90
12223;DHT22;6174;49.058;8.524;2023-05-10T19:54:02;14.70;99.90
12223;DHT22;6174;49.058;8.524;2023-05-10T19:56:30;14.70;99.90
12223;DHT22;6174;49.058;8.524;2023-05-10T19:58:57;14.60;99.90
12223;DHT22;6174;49.058;8.524;2023-05-10T20:01:24;14.60;99.90
12223;DHT22;6174;49.058;8.524;2023-05-10T20:03:51;14.60;99.90
12223;DHT22;6174;49.058;8.524;2023-05-10T20:06:17;14.60;99.90
12223;DHT22;6174;49.058;8.524;2023-05-10T20:08:44;14.60;99.90
12223;DHT22;6174;49.058;8.524;2023-05-10T20:11:11;14.50;99.90
12223;DHT22;6174;49.058;8.524;2023-05-10T20:13:39;14.40;99.90
12223;DHT22;6174;49.058;8.524;2023-05-10T20:16:06;14.40;99.90
12223;DHT22;6174;49.058;8.524;2023-05-10T20:18:32;14.40;99.90
12223;DHT22;6174;49.058;8.524;2023-05-10T20:21:00;14.30;99.90
12223;DHT22;6174;49.058;8.524;2023-05-10T20:23:26;14.30;99.90
12223;DHT22;6174;49.058;8.524;2023-05-10T20:25:53;14.20;99.90
12223;DHT22;6174;49.058;8.524;2023-05-10T20:28:21;14.20;99.90
12223;DHT22;6174;49.058;8.524;2023-05-10T20:30:51;14.20;99.90
12223;DHT22;6174;49.058;8.524;2023-05-10T20:33:18;14.30;99.90
12223;DHT22;6174;49.058;8.524;2023-05-10T20:35:45;14.30;99.90
12223;DHT22;6174;49.058;8.524;2023-05-10T20:38:12;14.20;99.90
12223;DHT22;6174;49.058;8.524;2023-05-10T20:40:39;14.20;99.90
12223;DHT22;6174;49.058;8.524;2023-05-10T20:43:06;14.10;99.90
12223;DHT22;6174;49.058;8.524;2023-05-10T20:45:32;14.20;99.90
12223;DHT22;6174;49.058;8.524;2023-05-10T20:48:00;14.10;99.90
12223;DHT22;6174;49.058;8.524;2023-05-10T20:50:27;14.10;99.90
12223;DHT22;6174;49.058;8.524;2023-05-10T20:52:54;14.10;99.90
12223;DHT22;6174;49.058;8.524;2023-05-10T20:55:21;14.10;99.90
12223;DHT22;6174;49.058;8.524;2023-05-10T20:57:47;14.10;99.90
12223;DHT22;6174;49.058;8.524;2023-05-10T21:00:14;14.00;99.90
12223;DHT22;6174;49.058;8.524;2023-05-10T21:02:42;14.00;99.90
12223;DHT22;6174;49.058;8.524;2023-05-10T21:05:11;14.00;99.90
12223;DHT22;6174;49.058;8.524;2023-05-10T21:07:38;14.00;99.90
12223;DHT22;6174;49.058;8.524;2023-05-10T21:10:06;14.00;99.90
12223;DHT22;6174;49.058;8.524;2023-05-10T21:12:34;13.90;99.90
12223;DHT22;6174;49.058;8.524;2023-05-10T21:15:01;13.90;99.90
12223;DHT22;6174;49.058;8.524;2023-05-10T21:17:28;13.90;99.90
12223;DHT22;6174;49.058;8.524;2023-05-10T21:19:55;13.80;99.90
12223;DHT22;6174;49.058;8.524;2023-05-10T21:22:23;13.80;99.90
12223;DHT22;6174;49.058;8.524;2023-05-10T21:24:50;13.90;99.90
12223;DHT22;6174;49.058;8.524;2023-05-10T21:36:11;13.70;99.90
12223;DHT22;6174;49.058;8.524;2023-05-10T22:09:44;13.40;99.90
